createdAt,value
2018-11-13T00:00:44.928Z,35.77
2018-11-13T00:03:14.208Z,38.17
2018-11-13T00:05:43.456Z,36.10
2018-11-13T00:08:12.688Z,38.43
2018-11-13T00:10:41.932Z,34.57
2018-11-13T00:13:11.412Z,37.67
2018-11-13T00:15:40.928Z,37.27
2018-11-13T00:18:10.439Z,37.93
2018-11-13T00:20:39.927Z,36.20
2018-11-13T00:23:09.398Z,36.83
2018-11-13T00:25:39.292Z,37.03
2018-11-13T00:28:08.792Z,38.07
2018-11-13T00:30:38.308Z,38.70
2018-11-13T00:33:08.171Z,39.20
2018-11-13T00:35:37.684Z,36.77
2018-11-13T00:38:07.212Z,40.63
2018-11-13T00:40:36.717Z,40.07
2018-11-13T00:43:06.268Z,40.10
2018-11-13T00:45:35.781Z,38.03
2018-11-13T00:48:05.497Z,39.03
2018-11-13T00:50:35.007Z,39.60
2018-11-13T00:53:05.115Z,38.77
2018-11-13T00:55:34.584Z,38.57
2018-11-13T00:58:04.460Z,39.07
2018-11-13T01:00:33.974Z,37.40
2018-11-13T01:03:03.497Z,38.37
2018-11-13T01:05:33.118Z,37.23
2018-11-13T01:08:02.472Z,38.10
2018-11-13T01:10:32.016Z,36.43
2018-11-13T01:13:01.488Z,38.60
2018-11-13T01:15:31.012Z,37.00
2018-11-13T01:18:00.516Z,38.23
2018-11-13T01:20:29.984Z,35.57
2018-11-13T01:22:59.472Z,37.43
2018-11-13T01:25:28.937Z,38.43
2018-11-13T01:27:58.435Z,39.30
2018-11-13T01:30:27.953Z,38.73
2018-11-13T01:32:57.448Z,37.13
2018-11-13T01:35:26.949Z,39.13
2018-11-13T01:37:56.417Z,37.37
2018-11-13T01:40:26.284Z,37.30
2018-11-13T01:42:55.782Z,37.70
2018-11-13T01:45:25.056Z,33.93
2018-11-13T01:47:54.605Z,36.73
2018-11-13T01:50:24.233Z,35.20
2018-11-13T01:52:53.704Z,36.30
2018-11-13T01:55:38.216Z,36.37
2018-11-13T01:58:08.005Z,35.63
2018-11-13T02:00:37.544Z,37.77
2018-11-13T02:03:07.245Z,36.90
2018-11-13T02:05:36.708Z,35.83
2018-11-13T02:08:06.208Z,35.03
2018-11-13T02:10:35.716Z,34.90
2018-11-13T02:13:05.905Z,35.50
2018-11-13T02:15:35.382Z,35.07
2018-11-13T02:18:04.603Z,32.47
2018-11-13T02:20:34.087Z,34.20
2018-11-13T02:23:03.636Z,33.73
2018-11-13T02:25:33.100Z,33.60
2018-11-13T02:28:02.612Z,33.93
2018-11-13T02:30:32.097Z,32.97
2018-11-13T02:33:01.653Z,34.43
2018-11-13T02:35:31.241Z,33.77
2018-11-13T02:38:00.823Z,34.93
2018-11-13T02:40:30.340Z,34.33
2018-11-13T02:42:59.896Z,31.67
2018-11-13T02:45:29.404Z,32.37
2018-11-13T02:47:58.891Z,30.23
2018-11-13T02:50:28.392Z,32.20
2018-11-13T02:52:57.920Z,33.07
2018-11-13T02:55:27.067Z,32.27
2018-11-13T02:57:56.476Z,33.23
2018-11-13T03:00:25.948Z,34.27
2018-11-13T03:02:55.420Z,33.00
2018-11-13T03:05:26.374Z,31.13
2018-11-13T03:07:55.856Z,33.50
2018-11-13T03:10:25.321Z,31.13
2018-11-13T03:12:54.788Z,32.20
2018-11-13T03:15:24.285Z,31.43
2018-11-13T03:17:53.758Z,33.57
2018-11-13T03:20:23.268Z,33.03
2018-11-13T03:22:52.781Z,33.43
2018-11-13T03:25:22.655Z,34.07
2018-11-13T03:27:52.180Z,32.13
2018-11-13T03:30:24.852Z,35.63
2018-11-13T03:32:54.836Z,33.77
2018-11-13T03:35:24.348Z,33.00
2018-11-13T03:37:53.883Z,36.20
2018-11-13T03:40:23.484Z,32.90
2018-11-13T03:42:53.328Z,33.33
2018-11-13T03:45:22.800Z,33.07
2018-11-13T03:47:52.299Z,32.60
2018-11-13T03:50:22.504Z,33.53
2018-11-13T03:52:52.003Z,33.93
2018-11-13T03:55:21.549Z,32.30
2018-11-13T03:57:51.437Z,34.40
2018-11-13T04:00:22.229Z,41.40
2018-11-13T04:02:51.767Z,37.80
2018-11-13T04:05:21.855Z,33.97
2018-11-13T04:07:52.689Z,36.77
2018-11-13T04:10:22.863Z,34.37
2018-11-13T04:12:52.342Z,37.90
2018-11-13T04:15:23.404Z,36.90
2018-11-13T04:17:52.927Z,34.17
2018-11-13T04:20:23.516Z,32.17
2018-11-13T04:22:53.020Z,31.10
2018-11-13T04:25:22.517Z,32.27
2018-11-13T04:27:52.001Z,32.60
2018-11-13T04:30:21.476Z,33.57
2018-11-13T04:32:51.372Z,31.60
2018-11-13T04:35:20.854Z,30.03
2018-11-13T04:37:50.344Z,31.30
2018-11-13T04:40:20.729Z,31.87
2018-11-13T04:42:51.489Z,31.13
2018-11-13T04:45:22.672Z,30.47
2018-11-13T04:47:52.191Z,29.50
2018-11-13T04:50:22.705Z,29.97
2018-11-13T04:52:52.208Z,34.30
2018-11-13T04:55:21.714Z,31.43
2018-11-13T04:57:51.330Z,28.93
2018-11-13T05:00:22.172Z,29.77
2018-11-13T05:02:51.716Z,32.40
2018-11-13T05:05:22.371Z,30.93
2018-11-13T05:07:53.084Z,30.33
2018-11-13T05:10:22.901Z,29.83
2018-11-13T05:12:52.451Z,29.87
2018-11-13T05:15:21.931Z,33.10
2018-11-13T05:17:51.460Z,34.47
2018-11-13T05:20:20.994Z,34.67
2018-11-13T05:22:51.538Z,34.57
2018-11-13T05:25:22.096Z,31.33
2018-11-13T05:27:51.755Z,30.33
2018-11-13T05:30:23.616Z,31.33
2018-11-13T05:32:53.104Z,30.63
2018-11-13T05:35:23.072Z,28.90
2018-11-13T05:37:52.560Z,29.57
2018-11-13T05:40:23.392Z,27.87
2018-11-13T05:42:52.879Z,28.93
2018-11-13T05:45:24.553Z,29.50
2018-11-13T05:47:58.675Z,29.23
2018-11-13T05:50:28.344Z,29.30
2018-11-13T05:52:57.576Z,32.30
2018-11-13T05:55:27.072Z,34.07
2018-11-13T05:57:56.599Z,31.20
2018-11-13T06:00:28.920Z,30.60
2018-11-13T06:02:58.596Z,32.27
2018-11-13T06:05:28.063Z,37.03
2018-11-13T06:07:57.688Z,36.23
2018-11-13T06:10:27.040Z,34.37
2018-11-13T06:12:57.202Z,34.57
2018-11-13T06:15:26.672Z,34.20
2018-11-13T06:17:56.178Z,32.03
2018-11-13T06:20:25.666Z,32.40
2018-11-13T06:22:55.227Z,32.33
2018-11-13T06:25:24.923Z,34.07
2018-11-13T06:27:54.455Z,34.80
2018-11-13T06:30:24.984Z,34.60
2018-11-13T06:32:54.584Z,32.13
2018-11-13T06:35:24.092Z,32.23
2018-11-13T06:37:53.635Z,33.70
2018-11-13T06:40:23.224Z,31.37
2018-11-13T06:42:52.816Z,31.07
2018-11-13T06:45:23.251Z,31.40
2018-11-13T06:47:52.928Z,32.70
2018-11-13T06:50:22.484Z,31.57
2018-11-13T06:52:52.087Z,32.77
2018-11-13T06:55:29.475Z,30.97
2018-11-13T06:57:59.088Z,32.57
2018-11-13T07:00:28.595Z,34.07
2018-11-13T07:02:58.087Z,31.40
2018-11-13T07:05:29.436Z,30.53
2018-11-13T07:07:59.160Z,30.60
2018-11-13T07:10:29.515Z,28.93
2018-11-13T07:12:59.591Z,30.60
2018-11-13T07:15:30.432Z,30.40
2018-11-13T07:18:01.340Z,32.27
2018-11-13T07:20:32.113Z,32.10
2018-11-13T07:23:01.636Z,30.47
2018-11-13T07:25:31.252Z,32.17
2018-11-13T07:28:00.888Z,31.33
2018-11-13T07:30:30.304Z,30.83
2018-11-13T07:32:59.836Z,30.87
2018-11-13T07:35:29.340Z,31.83
2018-11-13T07:37:59.777Z,31.17
2018-11-13T07:40:29.370Z,29.20
2018-11-13T07:42:58.840Z,31.03
2018-11-13T07:45:28.335Z,29.53
2018-11-13T07:47:57.860Z,27.40
2018-11-13T07:50:27.536Z,30.80
2018-11-13T07:52:57.020Z,29.63
2018-11-13T07:55:26.554Z,29.60
2018-11-13T07:57:56.056Z,30.87
2018-11-13T08:00:25.532Z,29.93
2018-11-13T08:02:55.964Z,28.67
2018-11-13T08:05:25.474Z,28.00
2018-11-13T08:07:54.944Z,27.37
2018-11-13T08:10:24.476Z,29.50
2018-11-13T08:12:54.025Z,28.63
2018-11-13T08:15:23.649Z,27.37
2018-11-13T08:17:53.191Z,28.07
2018-11-13T08:20:22.660Z,28.60
2018-11-13T08:22:52.168Z,28.93
2018-11-13T08:25:21.793Z,29.00
2018-11-13T08:27:51.388Z,27.00
2018-11-13T08:30:20.875Z,30.73
2018-11-13T08:32:50.408Z,26.63
2018-11-13T08:35:19.884Z,27.83
2018-11-13T08:37:49.361Z,27.80
2018-11-13T08:40:19.403Z,27.33
2018-11-13T08:42:48.899Z,27.10
2018-11-13T08:45:18.540Z,25.83
2018-11-13T08:47:48.120Z,24.87
2018-11-13T08:50:17.702Z,26.90
2018-11-13T08:52:47.696Z,31.20
2018-11-13T08:55:17.458Z,30.50
2018-11-13T08:57:46.972Z,26.90
2018-11-13T09:00:17.956Z,27.47
2018-11-13T09:02:48.205Z,27.03
2018-11-13T09:05:18.088Z,27.97
2018-11-13T09:07:47.704Z,31.67
2018-11-13T09:10:18.477Z,24.13
2018-11-13T09:12:48.254Z,27.80
2018-11-13T09:15:19.228Z,24.43
2018-11-13T09:17:48.739Z,26.07
2018-11-13T09:20:19.374Z,26.43
2018-11-13T09:22:48.938Z,25.53
2018-11-13T09:25:19.922Z,25.53
2018-11-13T09:27:49.440Z,26.73
2018-11-13T09:30:20.492Z,27.17
2018-11-13T09:32:50.542Z,28.60
2018-11-13T09:35:20.316Z,28.20
2018-11-13T09:37:49.812Z,29.37
2018-11-13T09:40:20.447Z,32.33
2018-11-13T09:42:51.260Z,30.97
2018-11-13T09:45:20.853Z,25.70
2018-11-13T09:47:50.479Z,27.03
2018-11-13T09:50:21.143Z,24.80
2018-11-13T09:52:51.921Z,28.20
2018-11-13T09:55:22.668Z,29.23
2018-11-13T09:57:52.335Z,25.50
2018-11-13T10:00:23.278Z,24.73
2018-11-13T10:02:55.116Z,24.23
2018-11-13T10:05:24.415Z,23.40
2018-11-13T10:07:54.688Z,22.57
2018-11-13T10:10:24.779Z,23.43
2018-11-13T10:12:54.491Z,23.70
2018-11-13T10:15:25.735Z,22.73
2018-11-13T10:17:55.339Z,23.27
2018-11-13T10:20:24.920Z,22.67
2018-11-13T10:22:55.532Z,24.17
2018-11-13T10:25:25.104Z,25.53
2018-11-13T10:27:54.597Z,23.77
2018-11-13T10:30:24.887Z,21.90
2018-11-13T10:32:54.769Z,21.60
2018-11-13T10:35:25.437Z,19.73
2018-11-13T10:37:55.295Z,21.40
2018-11-13T10:40:24.915Z,22.30
2018-11-13T10:42:54.672Z,20.97
2018-11-13T10:45:26.604Z,20.67
2018-11-13T10:47:56.340Z,21.03
2018-11-13T10:50:26.666Z,20.80
2018-11-13T10:52:56.796Z,21.73
2018-11-13T10:55:26.269Z,21.37
2018-11-13T10:57:55.756Z,21.43
2018-11-13T11:00:32.498Z,22.67
2018-11-13T11:03:07.412Z,22.53
2018-11-13T11:05:37.056Z,22.40
2018-11-13T11:08:06.588Z,22.60
2018-11-13T11:10:36.069Z,26.47
2018-11-13T11:13:05.776Z,28.10
2018-11-13T11:15:35.308Z,24.83
2018-11-13T11:18:04.890Z,22.67
2018-11-13T11:20:34.560Z,21.77
2018-11-13T11:23:04.082Z,22.57
2018-11-13T11:25:33.776Z,22.83
2018-11-13T11:28:03.316Z,21.63
2018-11-13T11:30:32.792Z,22.53
2018-11-13T11:33:02.273Z,22.97
2018-11-13T11:35:31.815Z,22.83
2018-11-13T11:38:01.280Z,23.73
2018-11-13T11:40:30.932Z,24.50
2018-11-13T11:43:00.462Z,25.33
2018-11-13T11:45:29.944Z,23.63
2018-11-13T11:47:59.456Z,23.50
2018-11-13T11:50:28.983Z,25.07
2018-11-13T11:52:58.509Z,24.97
2018-11-13T11:55:27.997Z,24.83
2018-11-13T11:57:57.508Z,25.97
2018-11-13T12:00:33.606Z,25.23
2018-11-13T12:03:03.404Z,25.90
2018-11-13T12:05:32.900Z,24.77
2018-11-13T12:08:02.380Z,26.07
2018-11-13T12:10:31.909Z,24.33
2018-11-13T12:13:01.384Z,24.40
2018-11-13T12:15:30.872Z,25.40
2018-11-13T12:18:00.416Z,24.77
2018-11-13T12:20:29.892Z,25.23
2018-11-13T12:22:59.406Z,24.63
2018-11-13T12:25:28.903Z,24.90
2018-11-13T12:27:58.416Z,25.17
2018-11-13T12:30:27.960Z,25.93
2018-11-13T12:32:57.468Z,25.90
2018-11-13T12:35:27.021Z,24.97
2018-11-13T12:37:56.701Z,24.20
2018-11-13T12:40:26.324Z,24.20
2018-11-13T12:42:55.796Z,25.20
2018-11-13T12:45:25.315Z,25.67
2018-11-13T12:47:54.868Z,24.20
2018-11-13T12:50:24.464Z,25.77
2018-11-13T12:52:53.963Z,23.97
2018-11-13T12:55:23.951Z,25.50
2018-11-13T12:57:53.592Z,25.00
2018-11-13T13:00:24.338Z,24.97
2018-11-13T13:02:54.115Z,26.03
2018-11-13T13:05:23.668Z,26.37
2018-11-13T13:07:53.180Z,26.57
2018-11-13T13:10:22.844Z,25.00
2018-11-13T13:12:52.362Z,26.37
2018-11-13T13:15:21.880Z,24.97
2018-11-13T13:17:51.398Z,25.47
2018-11-13T13:20:22.360Z,25.83
2018-11-13T13:22:52.144Z,26.00
2018-11-13T13:25:22.813Z,25.53
2018-11-13T13:27:52.399Z,25.53
2018-11-13T13:30:23.324Z,25.10
2018-11-13T13:32:52.976Z,23.80
2018-11-13T13:36:02.107Z,24.83
2018-11-13T13:38:33.442Z,24.67
2018-11-13T13:41:03.956Z,24.57
2018-11-13T13:43:33.965Z,25.77
2018-11-13T13:46:03.559Z,24.87
2018-11-13T13:48:33.028Z,27.20
2018-11-13T13:51:02.547Z,27.10
2018-11-13T13:53:32.122Z,26.90
2018-11-13T13:56:02.224Z,25.57
2018-11-13T13:58:31.693Z,25.13
2018-11-13T14:01:01.422Z,26.03
2018-11-13T14:03:31.039Z,25.33
2018-11-13T14:06:00.467Z,27.67
2018-11-13T14:08:30.247Z,27.37
2018-11-13T14:10:59.985Z,26.60
2018-11-13T14:13:29.488Z,24.73
2018-11-13T14:15:59.136Z,25.87
2018-11-13T14:18:28.656Z,25.20
2018-11-13T14:20:58.272Z,26.43
2018-11-13T14:23:28.008Z,27.47
2018-11-13T14:25:57.892Z,26.77
2018-11-13T14:28:27.412Z,25.80
2018-11-13T14:30:56.896Z,26.57
2018-11-13T14:33:26.421Z,25.67
2018-11-13T14:35:55.936Z,26.87
2018-11-13T14:38:25.447Z,27.20
2018-11-13T14:40:55.082Z,26.80
2018-11-13T14:43:24.639Z,29.53
2018-11-13T14:45:54.324Z,28.73
2018-11-13T14:48:24.546Z,28.47
2018-11-13T14:50:54.043Z,28.57
2018-11-13T14:53:23.619Z,26.63
2018-11-13T14:55:53.312Z,27.23
2018-11-13T14:58:22.814Z,27.33
2018-11-13T15:00:52.308Z,27.13
2018-11-13T15:03:21.568Z,27.90
2018-11-13T15:05:51.083Z,25.97
2018-11-13T15:08:20.589Z,26.17
2018-11-13T15:10:51.484Z,26.17
2018-11-13T15:13:22.136Z,25.77
2018-11-13T15:15:51.688Z,25.03
2018-11-13T15:18:21.215Z,22.60
2018-11-13T15:20:51.699Z,35.73
2018-11-13T15:23:21.256Z,76.17
2018-11-13T15:25:50.760Z,69.20
2018-11-13T15:28:20.304Z,33.07
2018-11-13T15:30:50.366Z,48.00
2018-11-13T15:33:22.268Z,32.40
2018-11-13T15:35:52.396Z,26.23
2018-11-13T15:38:21.925Z,23.57
2018-11-13T15:40:51.440Z,24.73
2018-11-13T15:43:20.920Z,27.43
2018-11-13T15:45:50.461Z,22.60
2018-11-13T15:48:20.060Z,21.23
2018-11-13T15:50:49.577Z,20.80
2018-11-13T15:53:19.128Z,21.13
2018-11-13T15:55:48.612Z,19.87
2018-11-13T15:58:18.175Z,20.23
2018-11-13T16:00:47.895Z,17.10
2018-11-13T16:03:25.112Z,19.13
2018-11-13T16:05:55.656Z,19.17
2018-11-13T16:08:25.144Z,17.53
2018-11-13T16:10:54.755Z,17.73
2018-11-13T16:13:24.272Z,17.67
2018-11-13T16:15:53.844Z,17.03
2018-11-13T16:18:24.976Z,23.37
2018-11-13T16:20:54.707Z,20.50
2018-11-13T16:23:24.318Z,18.53
2018-11-13T16:25:53.821Z,23.87
2018-11-13T16:28:23.319Z,21.93
2018-11-13T16:30:53.010Z,25.23
2018-11-13T16:33:22.528Z,28.83
2018-11-13T16:35:52.006Z,23.63
2018-11-13T16:38:21.745Z,20.13
2018-11-13T16:40:51.365Z,16.27
2018-11-13T16:43:20.884Z,16.30
2018-11-13T16:45:50.264Z,17.80
2018-11-13T16:48:19.851Z,18.43
2018-11-13T16:50:50.130Z,18.93
2018-11-13T16:53:19.136Z,17.97
2018-11-13T16:55:54.125Z,16.93
2018-11-13T16:58:23.700Z,15.97
2018-11-13T17:00:53.215Z,16.73
2018-11-13T17:03:22.998Z,16.07
2018-11-13T17:05:52.604Z,17.50
2018-11-13T17:08:22.591Z,17.27
2018-11-13T17:10:52.124Z,16.27
2018-11-13T17:13:21.705Z,15.90
2018-11-13T17:15:50.823Z,16.67
2018-11-13T17:18:20.252Z,16.30
2018-11-13T17:20:49.771Z,15.30
2018-11-13T17:23:19.306Z,16.10
2018-11-13T17:25:48.819Z,15.53
2018-11-13T17:28:18.333Z,17.33
2018-11-13T17:30:48.683Z,16.33
2018-11-13T17:33:18.316Z,16.50
2018-11-13T17:35:47.874Z,15.70
2018-11-13T17:38:17.373Z,15.80
2018-11-13T17:40:46.900Z,15.07
2018-11-13T17:43:16.445Z,16.00
2018-11-13T17:45:45.638Z,16.90
2018-11-13T17:48:15.041Z,17.17
2018-11-13T17:50:44.540Z,18.40
2018-11-13T17:53:14.082Z,18.37
2018-11-13T17:55:43.765Z,18.77
2018-11-13T17:58:14.817Z,16.83
2018-11-13T18:00:45.605Z,17.47
2018-11-13T18:03:16.198Z,19.67
2018-11-13T18:05:47.007Z,21.03
2018-11-13T18:08:17.648Z,15.77
2018-11-13T18:10:51.724Z,15.17
2018-11-13T18:13:21.607Z,16.27
2018-11-13T18:15:51.120Z,17.60
2018-11-13T18:18:20.769Z,18.10
2018-11-13T18:20:50.436Z,17.30
2018-11-13T18:23:19.980Z,21.13
2018-11-13T18:25:49.667Z,20.97
2018-11-13T18:28:19.278Z,20.17
2018-11-13T18:30:48.920Z,19.23
2018-11-13T18:33:18.421Z,19.03
2018-11-13T18:35:47.604Z,19.27
2018-11-13T18:38:17.260Z,18.17
2018-11-13T18:40:46.921Z,20.33
2018-11-13T18:43:16.432Z,24.77
2018-11-13T18:45:45.955Z,20.93
2018-11-13T18:48:15.410Z,19.87
2018-11-13T18:50:45.813Z,18.93
2018-11-13T18:53:15.656Z,19.83
2018-11-13T18:55:45.436Z,17.97
2018-11-13T18:58:14.923Z,19.97
2018-11-13T19:00:44.388Z,21.10
2018-11-13T19:03:13.960Z,19.93
2018-11-13T19:05:43.424Z,19.73
2018-11-13T19:08:12.936Z,20.50
2018-11-13T19:10:44.116Z,17.97
2018-11-13T19:13:17.446Z,17.40
2018-11-13T19:15:50.016Z,17.50
2018-11-13T19:18:20.556Z,18.03
2018-11-13T19:20:50.457Z,16.67
2018-11-13T19:23:21.961Z,15.40
2018-11-13T19:25:51.656Z,17.43
2018-11-13T19:28:21.673Z,18.27
2018-11-13T19:30:51.443Z,16.50
2018-11-13T19:33:21.213Z,15.83
2018-11-13T19:35:51.643Z,14.80
2018-11-13T19:38:21.255Z,15.33
2018-11-13T19:40:50.880Z,16.83
2018-11-13T19:43:20.715Z,16.73
2018-11-13T19:45:50.604Z,16.30
2018-11-13T19:48:20.466Z,17.27
2018-11-13T19:50:49.632Z,15.20
2018-11-13T19:53:18.974Z,17.23
2018-11-13T19:55:48.561Z,17.90
2018-11-13T19:58:18.164Z,18.37
2018-11-13T20:00:48.281Z,16.73
2018-11-13T20:03:18.228Z,15.27
2018-11-13T20:05:47.909Z,14.83
2018-11-13T20:08:17.513Z,14.20
2018-11-13T20:10:47.346Z,14.37
2018-11-13T20:13:16.978Z,14.30
2018-11-13T20:15:46.768Z,14.13
2018-11-13T20:18:16.324Z,13.37
2018-11-13T20:20:46.015Z,13.07
2018-11-13T20:23:15.870Z,12.60
2018-11-13T20:25:45.924Z,13.17
2018-11-13T20:28:15.428Z,12.40
2018-11-13T20:30:45.244Z,13.93
2018-11-13T20:33:14.848Z,13.17
2018-11-13T20:35:43.980Z,13.57
2018-11-13T20:38:13.406Z,14.03
2018-11-13T20:40:42.913Z,12.83
2018-11-13T20:43:12.767Z,13.17
2018-11-13T20:45:42.547Z,12.50
2018-11-13T20:48:12.049Z,13.93
2018-11-13T20:50:41.513Z,13.00
2018-11-13T20:53:11.252Z,10.83
2018-11-13T20:55:40.760Z,9.67
2018-11-13T20:58:10.277Z,7.47
2018-11-13T21:00:39.756Z,7.30
2018-11-13T21:03:09.288Z,7.23
2018-11-13T21:05:38.832Z,5.77
2018-11-13T21:08:07.956Z,6.23
2018-11-13T21:10:38.650Z,6.20
2018-11-13T21:13:09.285Z,5.60
2018-11-13T21:15:38.773Z,5.60
2018-11-13T21:18:08.253Z,4.70
2018-11-13T21:20:37.756Z,5.13
2018-11-13T21:23:07.218Z,5.37
2018-11-13T21:25:36.748Z,5.17
2018-11-13T21:28:06.302Z,5.50
2018-11-13T21:30:36.127Z,5.10
2018-11-13T21:33:06.628Z,5.13
2018-11-13T21:35:36.111Z,5.40
2018-11-13T21:38:06.342Z,5.27
2018-11-13T21:40:35.864Z,6.13
2018-11-13T21:43:05.743Z,5.60
2018-11-13T21:45:35.213Z,5.10
2018-11-13T21:48:05.180Z,5.93
2018-11-13T21:50:34.700Z,5.03
2018-11-13T21:53:04.189Z,5.30
2018-11-13T21:55:33.824Z,5.17
2018-11-13T21:58:03.480Z,4.80
2018-11-13T22:00:34.088Z,5.40
2018-11-13T22:03:18.956Z,5.17
2018-11-13T22:05:48.452Z,4.50
2018-11-13T22:08:18.010Z,5.03
2018-11-13T22:10:47.612Z,6.40
2018-11-13T22:13:17.598Z,5.63
2018-11-13T22:15:46.804Z,5.40
2018-11-13T22:18:16.293Z,5.77
2018-11-13T22:20:45.772Z,5.53
2018-11-13T22:23:15.316Z,5.23
2018-11-13T22:25:44.967Z,5.67
2018-11-13T22:28:14.175Z,4.80
2018-11-13T22:30:43.744Z,4.70
2018-11-13T22:33:13.201Z,4.73
2018-11-13T22:35:42.722Z,4.90
2018-11-13T22:38:12.188Z,4.87
2018-11-13T22:40:41.716Z,4.80
2018-11-13T22:43:11.399Z,4.77
2018-11-13T22:45:40.864Z,4.57
2018-11-13T22:48:10.332Z,4.20
2018-11-13T22:50:39.444Z,4.43
2018-11-13T22:53:08.812Z,4.93
2018-11-13T22:55:37.992Z,4.60
2018-11-13T22:58:08.145Z,4.40
2018-11-13T23:00:41.126Z,4.20
2018-11-13T23:03:15.648Z,4.70
2018-11-13T23:05:49.484Z,4.47
2018-11-13T23:08:20.687Z,4.13
2018-11-13T23:10:51.367Z,4.97
2018-11-13T23:13:24.001Z,4.97
2018-11-13T23:15:53.528Z,4.47
2018-11-13T23:18:23.015Z,4.70
2018-11-13T23:20:52.466Z,4.50
2018-11-13T23:23:36.113Z,4.57
2018-11-13T23:26:06.048Z,4.30
2018-11-13T23:28:40.047Z,4.37
2018-11-13T23:31:10.115Z,4.47
2018-11-13T23:33:39.656Z,4.60
2018-11-13T23:36:09.207Z,4.87
2018-11-13T23:38:38.773Z,4.70
2018-11-13T23:41:08.280Z,5.80
2018-11-13T23:43:37.771Z,4.87
2018-11-13T23:46:07.379Z,5.50
2018-11-13T23:48:36.853Z,5.60
2018-11-13T23:51:06.417Z,4.87
2018-11-13T23:53:35.922Z,5.20
2018-11-13T23:56:06.024Z,5.20
2018-11-13T23:58:35.544Z,5.70
